Terminal Aerodrome Forecast
Issued by NWS Jacksonville, FL

Home | Current Version | Previous Version | Text Only | Print | Product List | Glossary On
Versions: 1 2 3 4 5 6 7 8 9 10 11 12 13 14 15 16 17
000
FTUS42 KJAX 250500
TAFSSI
TAF
KSSI 250532Z 2506/2606 VRB02KT P6SM SKC
      TEMPO 2508/2511 5SM BR
     FM251400 36007KT P6SM SKC
     FM251900 05007KT P6SM SKC
     FM260200 00000KT P6SM SKC=

USA.gov is the U.S. government's official web portal to all federal, state and local government web resources and services.